Time;durP1;ratioP1;P1;durP2;ratioP2;P2;SDS_P1;SDS_P2;PMS_P1;PMS_P2;Temp;Humidity;BMP_temperature;BMP_pressure;BME280_temperature;BME280_humidity;BME280_pressure;Samples;Min_cycle;Max_cycle;Signal;HPM_P1;HPM_P2
2023/05/21 00:00:43;;;;;;;5.75;4.47;;;;;;;12.71;73.91;94669.31;5050943;28;20033;-77
2023/05/21 00:03:12;;;;;;;5.55;4.30;;;;;;;12.61;72.77;94660.69;5046486;28;20034;-78
2023/05/21 00:05:41;;;;;;;6.07;4.53;;;;;;;12.52;73.40;94665.00;4999264;28;20128;-78
2023/05/21 00:08:07;;;;;;;6.47;4.57;;;;;;;12.51;72.50;94656.34;4998102;28;20025;-78
2023/05/21 00:10:32;;;;;;;7.55;4.43;;;;;;;12.49;73.50;94662.66;5027616;28;20057;-78
2023/05/21 00:12:58;;;;;;;9.85;4.60;;;;;;;12.39;73.88;94656.66;5034000;28;20059;-78
2023/05/21 00:15:24;;;;;;;9.65;4.65;;;;;;;12.42;72.99;94664.19;5034089;28;20529;-78
2023/05/21 00:17:50;;;;;;;5.65;4.32;;;;;;;12.30;73.35;94655.72;5034056;28;20025;-78
2023/05/21 00:20:16;;;;;;;6.38;4.60;;;;;;;12.22;73.65;94655.59;5033915;28;20037;-78
2023/05/21 00:22:42;;;;;;;5.32;4.13;;;;;;;12.23;73.28;94657.25;5051660;28;20025;-78
2023/05/21 00:25:08;;;;;;;6.60;4.07;;;;;;;12.17;72.24;94642.19;5023857;28;20025;-78
2023/05/21 00:27:34;;;;;;;5.45;3.92;;;;;;;12.27;72.35;94646.41;5033763;28;20111;-78
2023/05/21 00:29:59;;;;;;;6.57;4.28;;;;;;;12.16;72.67;94645.75;5033203;28;20106;-78
2023/05/21 00:32:25;;;;;;;9.40;4.65;;;;;;;12.22;72.71;94650.41;5048371;28;20024;-77
2023/05/21 00:34:50;;;;;;;8.02;4.55;;;;;;;12.14;73.06;94651.09;5035955;28;20480;-77
2023/05/21 00:37:16;;;;;;;6.80;3.88;;;;;;;12.11;73.51;94651.38;5031404;28;20026;-77
2023/05/21 00:39:41;;;;;;;5.78;4.28;;;;;;;12.13;74.35;94641.66;4997350;28;20044;-77
2023/05/21 00:42:07;;;;;;;6.55;4.80;;;;;;;12.08;74.50;94647.28;5024542;28;20028;-77
2023/05/21 00:44:33;;;;;;;5.15;3.85;;;;;;;12.07;74.72;94643.03;5050076;28;20040;-78
2023/05/21 00:47:01;;;;;;;6.80;4.70;;;;;;;12.12;74.57;94640.03;5033407;28;20471;-78
2023/05/21 00:49:27;;;;;;;6.90;4.40;;;;;;;12.06;74.36;94636.19;5049855;28;20564;-78
2023/05/21 00:51:53;;;;;;;6.10;4.65;;;;;;;12.04;73.60;94642.50;5033393;28;20029;-79
2023/05/21 00:54:19;;;;;;;6.57;4.97;;;;;;;12.06;73.91;94628.38;5050197;28;20029;-79
2023/05/21 00:56:44;;;;;;;7.05;4.38;;;;;;;12.12;74.11;94634.81;5016597;28;20464;-78
2023/05/21 00:59:10;;;;;;;5.78;4.60;;;;;;;12.25;74.15;94639.69;5033144;28;20050;-78
2023/05/21 01:01:35;;;;;;;4.35;3.92;;;;;;;12.16;73.69;94637.94;5050979;28;20052;-79
2023/05/21 01:04:01;;;;;;;6.90;4.00;;;;;;;12.20;73.91;94636.69;5051012;28;20018;-79
2023/05/21 01:06:33;;;;;;;6.40;4.30;;;;;;;11.99;74.27;94637.72;5049855;28;20033;-78
2023/05/21 01:08:59;;;;;;;9.82;4.07;;;;;;;11.93;75.02;94635.66;5014903;28;20559;-77
2023/05/21 01:11:37;;;;;;;7.03;4.55;;;;;;;11.81;74.89;94626.31;5013544;28;20116;-78
2023/05/21 01:14:03;;;;;;;5.32;4.50;;;;;;;11.82;75.34;94630.59;5013669;28;20060;-78
2023/05/21 01:16:31;;;;;;;7.40;4.15;;;;;;;11.68;75.54;94613.63;5022070;28;20028;-77
2023/05/21 01:18:56;;;;;;;7.25;4.43;;;;;;;12.12;75.24;94624.41;5023297;28;20045;-78
2023/05/21 01:21:22;;;;;;;6.82;4.30;;;;;;;12.18;74.83;94612.59;5029562;28;20034;-77
2023/05/21 01:23:47;;;;;;;7.28;4.40;;;;;;;12.04;74.95;94625.09;5013431;28;20044;-77
2023/05/21 01:26:13;;;;;;;8.90;4.10;;;;;;;11.85;75.82;94627.69;5013453;28;20435;-78
2023/05/21 01:28:38;;;;;;;6.22;3.85;;;;;;;11.72;76.70;94612.38;5031145;28;20416;-77
2023/05/21 01:31:15;;;;;;;5.93;4.35;;;;;;;11.89;76.49;94618.66;5029442;28;20419;-77
2023/05/21 01:33:46;;;;;;;6.53;4.07;;;;;;;11.87;76.36;94620.63;5033765;28;20450;-77
2023/05/21 01:36:20;;;;;;;6.22;5.15;;;;;;;11.77;76.90;94617.16;5013003;28;20037;-78
2023/05/21 01:38:56;;;;;;;5.57;4.47;;;;;;;11.82;76.78;94618.38;5029053;28;20033;-78
2023/05/21 01:41:22;;;;;;;4.35;3.88;;;;;;;12.07;76.96;94618.78;5029943;28;20048;-77
2023/05/21 01:43:47;;;;;;;5.30;4.18;;;;;;;11.96;76.48;94624.97;5050291;28;20410;-78
2023/05/21 01:46:16;;;;;;;5.43;4.47;;;;;;;11.93;76.77;94617.44;5020237;28;20443;-78
2023/05/21 01:48:42;;;;;;;5.20;3.65;;;;;;;11.89;76.63;94616.06;5020416;28;20021;-78
2023/05/21 01:51:07;;;;;;;5.70;4.05;;;;;;;11.97;76.66;94626.59;5036798;28;20083;-78
2023/05/21 01:53:33;;;;;;;7.78;4.50;;;;;;;11.95;76.41;94612.94;5053434;28;20143;-78
2023/05/21 01:55:59;;;;;;;7.85;3.88;;;;;;;11.74;77.04;94627.84;5036395;28;20041;-78
2023/05/21 01:58:25;;;;;;;6.40;4.72;;;;;;;11.62;77.37;94616.78;5035512;28;20047;-78
2023/05/21 02:00:50;;;;;;;6.95;4.20;;;;;;;11.72;77.40;94619.34;5053118;28;20102;-77
2023/05/21 02:03:17;;;;;;;7.45;4.22;;;;;;;11.56;77.28;94606.91;5053023;28;20025;-77
2023/05/21 02:05:42;;;;;;;7.50;4.18;;;;;;;11.52;77.53;94621.16;5035044;28;20099;-78
2023/05/21 02:08:08;;;;;;;5.60;4.40;;;;;;;11.60;76.93;94593.47;5053030;28;20491;-78
2023/05/21 02:10:34;;;;;;;4.90;4.13;;;;;;;11.51;76.88;94599.53;5053126;28;20056;-77
2023/05/21 02:13:00;;;;;;;6.72;4.15;;;;;;;11.34;77.22;94602.81;5019706;28;20466;-77
2023/05/21 02:15:25;;;;;;;8.85;3.92;;;;;;;11.51;77.16;94612.53;5031225;28;20038;-77
2023/05/21 02:17:51;;;;;;;6.18;4.50;;;;;;;11.42;76.90;94605.53;5016578;28;20032;-77
2023/05/21 02:20:17;;;;;;;6.57;4.65;;;;;;;11.27;77.29;94609.50;5016674;28;20052;-77
2023/05/21 02:22:44;;;;;;;7.20;4.28;;;;;;;11.25;77.02;94595.81;5016217;28;20112;-77
2023/05/21 02:25:10;;;;;;;7.22;4.30;;;;;;;11.10;77.79;94608.41;5030701;28;20037;-77
2023/05/21 02:27:36;;;;;;;5.78;3.95;;;;;;;11.30;77.05;94596.22;5036217;28;20029;-77
2023/05/21 02:30:20;;;;;;;5.35;4.18;;;;;;;11.03;78.07;94591.69;5029891;28;20052;-77
2023/05/21 02:32:47;;;;;;;4.97;4.40;;;;;;;11.01;78.66;94573.66;5017221;28;20418;-77
2023/05/21 02:35:13;;;;;;;4.53;3.75;;;;;;;11.10;77.74;94604.03;5052226;28;20033;-77
2023/05/21 02:37:42;;;;;;;5.55;4.25;;;;;;;11.11;77.56;94597.84;5052527;28;20029;-77
2023/05/21 02:40:11;;;;;;;6.95;4.32;;;;;;;11.19;77.48;94600.59;5032617;28;20038;-77
2023/05/21 02:42:38;;;;;;;7.80;4.07;;;;;;;11.31;77.07;94603.91;5033684;28;20057;-77
2023/05/21 02:45:10;;;;;;;8.88;5.10;;;;;;;11.26;76.68;94597.47;5032500;28;20037;-78
2023/05/21 02:47:37;;;;;;;6.93;4.22;;;;;;;11.21;77.00;94599.66;5033742;28;20108;-79
2023/05/21 02:50:05;;;;;;;6.55;4.90;;;;;;;11.39;77.44;94588.44;5032485;28;20037;-78
2023/05/21 02:52:31;;;;;;;8.80;4.95;;;;;;;11.53;76.87;94592.41;5032678;28;20427;-77
2023/05/21 02:54:56;;;;;;;7.70;5.78;;;;;;;11.51;76.97;94589.13;5048504;28;20037;-77
2023/05/21 02:57:21;;;;;;;6.85;5.50;;;;;;;11.52;76.85;94601.16;5032018;28;20554;-77
2023/05/21 02:59:47;;;;;;;6.85;5.00;;;;;;;11.54;77.22;94590.63;5031998;28;20389;-77
2023/05/21 03:02:12;;;;;;;6.75;4.68;;;;;;;11.45;77.81;94591.44;5031520;28;20427;-76
2023/05/21 03:04:44;;;;;;;6.97;4.10;;;;;;;11.55;77.58;94585.28;5041238;28;20033;-77
2023/05/21 03:07:12;;;;;;;7.03;4.70;;;;;;;11.59;77.66;94597.06;5032065;28;20553;-77
2023/05/21 03:09:38;;;;;;;6.70;4.50;;;;;;;11.42;77.87;94592.53;5031843;28;20045;-76
2023/05/21 03:12:04;;;;;;;6.32;4.82;;;;;;;11.34;77.84;94587.22;5014914;28;20029;-77
2023/05/21 03:14:30;;;;;;;5.82;4.45;;;;;;;11.39;77.28;94596.25;5032048;28;20102;-77
2023/05/21 03:16:55;;;;;;;6.63;4.57;;;;;;;11.46;76.88;94601.72;5015705;28;20025;-77
2023/05/21 03:19:20;;;;;;;5.43;4.70;;;;;;;11.35;76.95;94568.84;5023149;28;20037;-77
2023/05/21 03:21:47;;;;;;;10.23;4.93;;;;;;;11.49;76.20;94603.22;5052800;28;20036;-76
2023/05/21 03:24:14;;;;;;;7.28;4.10;;;;;;;11.57;75.38;94603.34;5051652;28;20029;-78
2023/05/21 03:26:39;;;;;;;7.75;4.13;;;;;;;11.57;75.76;94593.75;5051489;28;20086;-78
2023/05/21 03:29:04;;;;;;;6.07;4.30;;;;;;;11.68;75.40;94600.59;5051624;28;20034;-78
2023/05/21 03:31:30;;;;;;;5.80;4.38;;;;;;;11.65;74.97;94600.88;5034833;28;20037;-78
2023/05/21 03:33:56;;;;;;;8.23;4.32;;;;;;;11.75;74.59;94601.66;5051397;28;20025;-77
2023/05/21 03:36:21;;;;;;;5.22;3.85;;;;;;;11.81;74.40;94608.09;5034602;28;21761;-77
2023/05/21 03:38:46;;;;;;;5.03;4.43;;;;;;;11.90;74.82;94609.91;5051518;28;20051;-77
2023/05/21 03:41:12;;;;;;;6.72;4.43;;;;;;;11.88;74.21;94604.03;5051449;28;20553;-77
2023/05/21 03:43:37;;;;;;;6.07;4.15;;;;;;;11.92;73.73;94601.94;5051257;28;20514;-76
2023/05/21 03:46:03;;;;;;;5.32;3.90;;;;;;;11.99;73.87;94609.06;5034470;28;20039;-77
2023/05/21 03:48:28;;;;;;;6.00;4.30;;;;;;;11.99;73.89;94603.88;5034692;28;20037;-77
2023/05/21 03:50:54;;;;;;;7.07;4.20;;;;;;;12.02;73.76;94600.97;5034510;28;20415;-77
2023/05/21 03:53:20;;;;;;;5.03;4.50;;;;;;;11.87;73.50;94572.91;5050970;28;20025;-77
2023/05/21 03:55:46;;;;;;;6.75;3.90;;;;;;;12.17;73.73;94596.13;5050648;28;20039;-76
2023/05/21 03:58:11;;;;;;;7.72;4.35;;;;;;;12.10;76.80;94589.88;5051073;28;20027;-77
2023/05/21 04:00:36;;;;;;;6.97;4.40;;;;;;;12.34;75.69;94605.00;5013781;28;20033;-76
2023/05/21 04:03:05;;;;;;;5.28;4.00;;;;;;;12.17;75.31;94584.91;5039887;28;20396;-76
2023/05/21 04:05:31;;;;;;;6.40;3.88;;;;;;;12.25;75.24;94603.25;5034752;28;20065;-76
2023/05/21 04:07:57;;;;;;;6.53;4.43;;;;;;;12.24;74.63;94601.59;5047652;28;20048;-76
2023/05/21 04:10:23;;;;;;;6.57;5.03;;;;;;;12.17;77.72;94596.13;5034275;28;20095;-76
2023/05/21 04:12:51;;;;;;;7.85;5.15;;;;;;;12.22;77.00;94608.72;5051857;28;20051;-76
2023/05/21 04:15:17;;;;;;;5.63;4.50;;;;;;;12.23;76.67;94605.16;5030216;28;20043;-77
2023/05/21 04:17:44;;;;;;;6.53;4.32;;;;;;;12.24;77.37;94604.22;5030564;28;20036;-76
2023/05/21 04:20:15;;;;;;;7.97;4.80;;;;;;;12.34;77.56;94607.63;5030344;28;20419;-77
2023/05/21 04:22:41;;;;;;;5.28;3.92;;;;;;;12.33;76.84;94602.53;5030761;28;20029;-77
2023/05/21 04:25:07;;;;;;;5.82;4.63;;;;;;;12.42;76.85;94607.69;5013999;28;20526;-77
2023/05/21 04:27:33;;;;;;;7.18;4.40;;;;;;;12.53;76.78;94606.69;5030471;28;20112;-78
2023/05/21 04:29:58;;;;;;;8.63;3.90;;;;;;;12.59;75.74;94594.88;5014362;28;20128;-78
2023/05/21 04:32:24;;;;;;;7.13;4.28;;;;;;;12.69;75.52;94608.69;5024728;28;20108;-77
2023/05/21 04:34:49;;;;;;;5.25;4.15;;;;;;;12.91;75.72;94605.69;5032487;28;20056;-77
2023/05/21 04:37:18;;;;;;;6.18;4.35;;;;;;;12.85;75.42;94601.06;5013883;28;20479;-78
2023/05/21 04:39:43;;;;;;;6.63;4.00;;;;;;;12.89;75.15;94596.38;5031813;28;20083;-77
2023/05/21 04:42:09;;;;;;;5.95;4.28;;;;;;;13.01;74.21;94599.56;5032507;28;20458;-78
2023/05/21 04:44:36;;;;;;;7.80;4.28;;;;;;;13.15;74.12;94609.53;5017179;28;20082;-78
2023/05/21 04:47:02;;;;;;;5.63;3.90;;;;;;;13.42;74.53;94608.66;5017330;28;20076;-78
2023/05/21 04:49:28;;;;;;;5.28;4.00;;;;;;;13.53;73.50;94608.44;5043777;28;20423;-78
2023/05/21 04:51:54;;;;;;;4.60;3.58;;;;;;;13.53;72.46;94603.22;5043098;28;20029;-77
2023/05/21 04:54:19;;;;;;;6.63;4.03;;;;;;;13.58;70.73;94611.41;5013943;28;20040;-78
2023/05/21 04:56:46;;;;;;;4.93;3.80;;;;;;;13.71;70.95;94598.00;5027943;28;20067;-77
2023/05/21 04:59:12;;;;;;;7.07;4.05;;;;;;;13.81;72.28;94603.94;5028874;28;20418;-77
2023/05/21 05:01:38;;;;;;;5.90;4.32;;;;;;;14.03;73.20;94601.81;5045969;28;20506;-77
2023/05/21 05:04:04;;;;;;;7.00;3.92;;;;;;;14.12;72.62;94594.84;5046274;28;20025;-77
2023/05/21 05:06:29;;;;;;;5.57;4.22;;;;;;;14.04;72.78;94596.44;5045717;28;20879;-78
2023/05/21 05:08:55;;;;;;;6.88;4.53;;;;;;;14.26;72.59;94600.34;5026214;28;20099;-76
2023/05/21 05:11:21;;;;;;;6.93;3.85;;;;;;;14.36;70.51;94589.75;5012694;28;20033;-76
2023/05/21 05:13:46;;;;;;;5.80;3.85;;;;;;;14.75;70.49;94597.16;5028324;28;20048;-75
2023/05/21 05:16:13;;;;;;;5.68;4.05;;;;;;;14.72;70.83;94590.44;5046823;28;20033;-74
2023/05/21 05:18:38;;;;;;;6.25;4.28;;;;;;;15.21;67.17;94592.41;5036651;28;20116;-75
2023/05/21 05:21:04;;;;;;;7.82;4.07;;;;;;;15.34;66.33;94597.16;5017364;28;20068;-72
2023/05/21 05:23:29;;;;;;;7.43;3.50;;;;;;;15.62;66.26;94601.09;5055652;28;20039;-73
2023/05/21 05:25:55;;;;;;;8.18;4.07;;;;;;;15.79;65.85;94598.50;5054119;28;20040;-76
2023/05/21 05:28:21;;;;;;;5.35;3.60;;;;;;;15.93;62.74;94603.09;5056975;28;20036;-72
2023/05/21 05:30:46;;;;;;;8.75;4.35;;;;;;;15.90;63.66;94599.97;5055097;28;20059;-76
2023/05/21 05:33:12;;;;;;;6.88;3.70;;;;;;;16.09;63.85;94600.44;5039581;28;20040;-78
2023/05/21 05:35:37;;;;;;;5.30;3.97;;;;;;;16.26;63.41;94600.44;5055458;28;20044;-78
2023/05/21 05:38:03;;;;;;;8.40;4.90;;;;;;;16.27;62.69;94600.28;5038375;28;20038;-78
2023/05/21 05:40:28;;;;;;;8.95;4.63;;;;;;;16.23;61.30;94604.19;5028791;28;20037;-77
2023/05/21 05:42:54;;;;;;;9.00;5.13;;;;;;;16.13;61.80;94603.59;5037330;28;20030;-80
2023/05/21 05:45:19;;;;;;;8.77;5.40;;;;;;;16.23;61.99;94593.72;5047617;28;20033;-76
2023/05/21 05:47:45;;;;;;;5.05;3.70;;;;;;;16.47;58.84;94589.41;5057185;28;20074;-81
2023/05/21 05:50:11;;;;;;;6.38;3.83;;;;;;;16.73;57.16;94591.78;5056312;28;20087;-81
2023/05/21 05:52:36;;;;;;;9.85;4.55;;;;;;;16.85;57.27;94590.44;5022820;28;20056;-77
2023/05/21 05:55:02;;;;;;;5.85;4.20;;;;;;;16.88;57.91;94587.50;5034433;28;20037;-78
2023/05/21 05:57:27;;;;;;;6.30;4.32;;;;;;;16.96;57.58;94594.50;5041522;28;20037;-78
2023/05/21 05:59:53;;;;;;;5.30;4.00;;;;;;;16.94;57.57;94592.06;5056974;28;20449;-77
2023/05/21 06:02:18;;;;;;;8.65;4.25;;;;;;;17.08;57.40;94566.09;5019043;28;20052;-77
2023/05/21 06:04:44;;;;;;;6.70;3.55;;;;;;;17.52;55.63;94587.25;5022028;28;20556;-76
2023/05/21 06:07:09;;;;;;;6.13;3.65;;;;;;;17.50;53.48;94591.09;5035685;28;20021;-76
2023/05/21 06:09:35;;;;;;;6.18;3.50;;;;;;;17.65;53.32;94578.81;5036575;28;20412;-86
2023/05/21 06:12:00;;;;;;;6.07;3.67;;;;;;;17.73;53.82;94585.81;5047356;28;20036;-79
2023/05/21 06:14:26;;;;;;;6.68;3.45;;;;;;;17.84;50.33;94580.97;5042280;28;20487;-80
2023/05/21 06:16:51;;;;;;;5.40;3.50;;;;;;;17.77;51.75;94572.13;5055324;28;20408;-75
2023/05/21 06:19:17;;;;;;;5.18;3.95;;;;;;;17.76;53.85;94578.38;5038792;28;20045;-75
2023/05/21 06:21:42;;;;;;;6.50;3.47;;;;;;;17.35;51.77;94583.13;5049606;28;20033;-74
2023/05/21 06:24:08;;;;;;;7.40;3.80;;;;;;;17.68;53.33;94575.00;5019916;28;20021;-77
2023/05/21 06:26:33;;;;;;;6.72;4.70;;;;;;;17.80;55.50;94571.00;5047041;28;20488;-76
2023/05/21 06:28:58;;;;;;;9.93;4.03;;;;;;;17.76;53.84;94575.75;5015730;28;20025;-74
2023/05/21 06:31:24;;;;;;;5.32;3.85;;;;;;;17.81;53.52;94573.47;5032087;28;20029;-79
2023/05/21 06:33:49;;;;;;;6.20;3.55;;;;;;;17.97;54.08;94564.63;5032895;28;20029;-77
2023/05/21 06:36:15;;;;;;;8.25;4.60;;;;;;;17.84;54.73;94556.53;5052146;28;20041;-77
2023/05/21 06:38:41;;;;;;;5.88;3.83;;;;;;;17.97;54.40;94558.53;5028694;28;20031;-77
2023/05/21 06:41:07;;;;;;;7.22;4.25;;;;;;;17.99;53.33;94564.44;5051842;28;20522;-77
2023/05/21 06:43:33;;;;;;;4.30;3.55;;;;;;;18.07;53.04;94557.28;5035758;28;20039;-77
2023/05/21 06:45:58;;;;;;;8.45;4.45;;;;;;;18.11;52.01;94551.66;5053470;28;20033;-75
2023/05/21 06:48:23;;;;;;;6.43;3.55;;;;;;;18.17;52.32;94556.22;5053263;28;20478;-78
2023/05/21 06:50:49;;;;;;;5.30;3.83;;;;;;;18.20;52.76;94555.88;5035105;28;20037;-76
2023/05/21 06:53:15;;;;;;;5.03;3.45;;;;;;;18.11;50.44;94556.91;5051777;28;20017;-75
2023/05/21 06:55:43;;;;;;;4.45;3.08;;;;;;;18.25;50.66;94549.06;5021465;28;20038;-76
2023/05/21 06:58:09;;;;;;;7.28;3.58;;;;;;;18.32;50.97;94564.94;5003420;28;20025;-78
2023/05/21 07:00:35;;;;;;;4.25;3.38;;;;;;;18.32;50.72;94549.16;5050183;28;20094;-76
2023/05/21 07:03:00;;;;;;;6.97;3.17;;;;;;;17.97;48.72;94558.53;5041576;28;20033;-78
2023/05/21 07:05:26;;;;;;;5.43;3.38;;;;;;;18.30;47.52;94551.97;5048947;28;20037;-78
2023/05/21 07:07:51;;;;;;;5.45;3.80;;;;;;;18.58;48.45;94551.31;5046738;28;20504;-76
2023/05/21 07:10:16;;;;;;;7.90;3.97;;;;;;;18.82;49.76;94554.69;5036982;28;20050;-77
2023/05/21 07:12:42;;;;;;;7.15;3.60;;;;;;;18.95;50.34;94550.41;5015349;28;20042;-79
2023/05/21 07:15:08;;;;;;;4.75;3.78;;;;;;;19.15;46.30;94540.09;5021500;28;20025;-79
2023/05/21 07:17:33;;;;;;;7.32;3.55;;;;;;;19.16;46.27;94546.97;5032746;28;20037;-78
2023/05/21 07:19:59;;;;;;;6.53;3.55;;;;;;;19.23;47.49;94548.91;5039838;28;20048;-78
2023/05/21 07:22:24;;;;;;;4.78;3.58;;;;;;;19.44;48.44;94554.16;5050830;28;20036;-78
2023/05/21 07:24:50;;;;;;;6.00;3.83;;;;;;;19.74;47.01;94554.06;5044024;28;20025;-79
2023/05/21 07:27:15;;;;;;;10.73;3.70;;;;;;;19.52;46.89;94555.84;5031052;28;20030;-79
2023/05/21 07:29:41;;;;;;;5.55;3.45;;;;;;;19.12;47.17;94566.81;5030689;28;20079;-82
2023/05/21 07:32:06;;;;;;;6.72;3.53;;;;;;;19.24;46.77;94561.84;5029276;28;20419;-81
2023/05/21 07:34:32;;;;;;;5.93;3.50;;;;;;;19.06;45.96;94554.38;5030542;28;20037;-82
2023/05/21 07:36:57;;;;;;;7.43;3.58;;;;;;;19.34;47.33;94564.19;5029290;28;20029;-81
2023/05/21 07:39:22;;;;;;;6.38;3.63;;;;;;;18.75;49.23;94533.56;5028867;28;20037;-82
2023/05/21 07:41:48;;;;;;;5.45;3.38;;;;;;;18.99;48.12;94556.13;5029024;28;20025;-82
2023/05/21 07:44:13;;;;;;;7.82;3.70;;;;;;;19.11;48.36;94561.72;5030971;28;20052;-82
2023/05/21 07:46:39;;;;;;;6.55;3.53;;;;;;;18.74;47.59;94560.88;5034025;28;20021;-82
2023/05/21 07:49:04;;;;;;;6.90;3.97;;;;;;;18.89;49.14;94566.94;5049382;28;20029;-82
2023/05/21 07:51:30;;;;;;;4.50;3.65;;;;;;;19.08;49.33;94567.34;5033094;28;20414;-82
2023/05/21 07:53:55;;;;;;;5.93;3.28;;;;;;;19.13;47.64;94567.59;5050419;28;20021;-82
2023/05/21 07:56:21;;;;;;;7.43;3.25;;;;;;;19.10;46.94;94558.25;5035025;28;20064;-83
2023/05/21 07:58:47;;;;;;;6.43;3.63;;;;;;;19.53;45.98;94545.16;5030990;28;20032;-82
2023/05/21 08:01:12;;;;;;;5.05;3.38;;;;;;;19.79;45.77;94564.84;5012955;28;20491;-83
2023/05/21 08:03:38;;;;;;;5.95;3.17;;;;;;;20.03;45.81;94559.19;5024349;28;20033;-82
2023/05/21 08:06:03;;;;;;;5.72;3.60;;;;;;;20.20;43.08;94561.53;5030659;28;20048;-82
2023/05/21 08:08:29;;;;;;;5.60;3.50;;;;;;;19.62;44.37;94551.91;5031254;28;20044;-83
2023/05/21 08:10:55;;;;;;;4.93;3.33;;;;;;;19.84;45.97;94549.28;5031077;28;20042;-81
2023/05/21 08:13:20;;;;;;;8.63;3.30;;;;;;;19.81;43.46;94539.13;5033897;28;20045;-83
2023/05/21 08:15:47;;;;;;;5.47;3.70;;;;;;;19.88;44.07;94544.44;5014228;28;20411;-82
2023/05/21 08:18:12;;;;;;;6.43;3.10;;;;;;;19.80;43.33;94550.66;5020627;28;20080;-83
2023/05/21 08:20:38;;;;;;;3.92;3.10;;;;;;;19.66;41.90;94541.03;5031107;28;20045;-82
2023/05/21 08:23:03;;;;;;;6.63;3.40;;;;;;;19.56;42.56;94546.59;5032175;28;20029;-81
2023/05/21 08:25:29;;;;;;;6.70;2.92;;;;;;;18.90;42.73;94531.72;5030970;28;20034;-82
2023/05/21 08:27:54;;;;;;;10.27;3.40;;;;;;;19.00;43.79;94554.28;5013898;28;20034;-82
2023/05/21 08:30:20;;;;;;;6.32;3.38;;;;;;;18.84;44.48;94550.06;5032027;28;20043;-82
2023/05/21 08:32:46;;;;;;;4.35;2.97;;;;;;;18.75;45.45;94554.63;5013885;28;20033;-81
2023/05/21 08:35:11;;;;;;;6.50;3.20;;;;;;;18.57;44.50;94552.31;5030459;28;20049;-81
2023/05/21 08:37:37;;;;;;;4.82;3.15;;;;;;;18.78;45.05;94558.69;5022043;28;20418;-82
2023/05/21 08:40:03;;;;;;;5.88;2.97;;;;;;;18.85;45.17;94555.13;5033522;28;20037;-82
2023/05/21 08:42:35;;;;;;;4.60;3.50;;;;;;;19.10;44.75;94549.56;5029114;28;20026;-81
2023/05/21 08:45:01;;;;;;;7.10;3.22;;;;;;;19.07;45.39;94552.56;5022643;28;20045;-77
2023/05/21 08:47:26;;;;;;;4.80;3.17;;;;;;;19.22;46.06;94545.44;5013435;28;20287;-80
2023/05/21 08:49:52;;;;;;;4.35;3.13;;;;;;;19.39;44.68;94546.03;5028704;28;20062;-81
2023/05/21 08:52:17;;;;;;;8.38;3.38;;;;;;;19.53;44.08;94531.97;5028263;28;20021;-82
2023/05/21 08:54:43;;;;;;;5.53;3.22;;;;;;;19.69;44.73;94551.19;5027983;28;20052;-81
2023/05/21 08:57:08;;;;;;;6.15;3.20;;;;;;;19.73;43.84;94539.28;5027939;28;20057;-81
2023/05/21 08:59:36;;;;;;;7.03;3.30;;;;;;;19.58;45.17;94544.56;5027858;28;20037;-81
2023/05/21 09:02:02;;;;;;;4.60;3.10;;;;;;;19.52;43.12;94554.03;5027906;28;20028;-81
2023/05/21 09:04:27;;;;;;;6.10;4.13;;;;;;;19.75;43.16;94555.69;5011358;28;20040;-82
2023/05/21 09:06:53;;;;;;;5.65;4.00;;;;;;;19.62;43.92;94557.19;5027833;28;20041;-81
2023/05/21 09:09:32;;;;;;;6.47;3.15;;;;;;;19.67;43.13;94571.63;5027851;28;20403;-83
2023/05/21 09:11:58;;;;;;;7.43;3.20;;;;;;;19.15;39.23;94566.44;5028515;28;20064;-82
2023/05/21 09:14:23;;;;;;;4.32;2.72;;;;;;;18.99;39.18;94566.63;5029614;28;20037;-84
2023/05/21 09:16:49;;;;;;;4.78;2.50;;;;;;;19.02;39.63;94565.47;5028107;28;20033;-82
2023/05/21 09:19:15;;;;;;;6.05;2.85;;;;;;;19.14;41.18;94569.25;5038945;28;20044;-77
2023/05/21 09:21:40;;;;;;;5.20;2.63;;;;;;;19.35;41.81;94556.09;5050801;28;20540;-77
2023/05/21 09:24:06;;;;;;;7.03;2.60;;;;;;;19.60;39.83;94553.91;5049378;28;20108;-78
2023/05/21 09:26:31;;;;;;;4.95;2.50;;;;;;;19.59;36.86;94554.13;5032650;28;20112;-78
2023/05/21 09:28:58;;;;;;;5.38;2.80;;;;;;;19.46;37.93;94546.88;5029250;28;20028;-77
2023/05/21 09:31:24;;;;;;;4.70;2.88;;;;;;;19.53;37.73;94558.31;5029521;28;20464;-76
2023/05/21 09:33:50;;;;;;;6.68;3.20;;;;;;;19.68;38.04;94549.56;5018031;28;20049;-79
2023/05/21 09:36:19;;;;;;;5.13;2.75;;;;;;;19.74;38.64;94556.69;5030601;28;20466;-78
2023/05/21 09:38:45;;;;;;;3.53;2.42;;;;;;;19.74;36.59;94554.06;5024184;28;20391;-78
2023/05/21 09:41:10;;;;;;;8.05;3.05;;;;;;;19.79;36.31;94538.50;5027883;28;20441;-78
2023/05/21 09:43:36;;;;;;;5.07;2.92;;;;;;;19.87;36.82;94548.91;5029525;28;20028;-78
2023/05/21 09:46:01;;;;;;;5.88;2.70;;;;;;;19.87;36.65;94548.91;5045147;28;20446;-78
2023/05/21 09:48:33;;;;;;;4.47;2.83;;;;;;;19.77;37.75;94546.59;5043559;28;20028;-76
2023/05/21 09:51:11;;;;;;;4.93;2.47;;;;;;;19.93;36.89;94542.06;5047079;28;20138;-78
2023/05/21 09:53:57;;;;;;;4.70;2.60;;;;;;;19.97;39.62;94543.31;5047136;28;20047;-78
2023/05/21 09:56:25;;;;;;;7.57;3.28;;;;;;;20.06;37.45;94532.44;5047274;28;20066;-78
2023/05/21 09:58:55;;;;;;;4.20;2.90;;;;;;;20.40;35.08;94538.72;5026837;28;20187;-78
2023/05/21 10:01:21;;;;;;;3.55;2.42;;;;;;;20.53;36.18;94527.44;5045795;28;20306;-78
2023/05/21 10:03:53;;;;;;;5.30;2.90;;;;;;;20.60;35.27;94524.88;5046728;28;20035;-78
2023/05/21 10:06:19;;;;;;;4.22;2.92;;;;;;;20.64;34.70;94526.91;5049501;28;20116;-78
2023/05/21 10:08:44;;;;;;;5.10;2.92;;;;;;;20.60;32.75;94516.94;5030918;28;20384;-78
2023/05/21 10:11:10;;;;;;;6.53;2.83;;;;;;;20.53;33.78;94523.03;5016721;28;20417;-78
2023/05/21 10:13:38;;;;;;;5.50;3.00;;;;;;;20.36;34.19;94516.38;5033063;28;20032;-79
2023/05/21 10:16:04;;;;;;;6.80;3.03;;;;;;;20.19;35.87;94523.78;5032488;28;20137;-78
2023/05/21 10:18:29;;;;;;;6.72;2.85;;;;;;;20.06;34.45;94527.16;5015240;28;20513;-79
2023/05/21 10:20:55;;;;;;;5.18;3.17;;;;;;;20.21;34.48;94521.78;5049278;28;20037;-78
2023/05/21 10:23:22;;;;;;;3.92;2.90;;;;;;;20.24;33.97;94504.75;5051409;28;20036;-78
2023/05/21 10:25:47;;;;;;;4.93;3.15;;;;;;;20.17;35.15;94522.34;5032620;28;20040;-78
2023/05/21 10:28:17;;;;;;;5.65;2.92;;;;;;;20.18;35.32;94508.16;5031319;28;20029;-78
2023/05/21 10:30:42;;;;;;;5.82;3.47;;;;;;;20.20;36.05;94498.25;5048610;28;20080;-78
2023/05/21 10:33:08;;;;;;;7.80;3.47;;;;;;;20.33;36.20;94516.75;5032138;28;20071;-79
2023/05/21 10:35:33;;;;;;;9.25;3.72;;;;;;;20.24;36.35;94497.66;5050639;28;20043;-78
2023/05/21 10:37:59;;;;;;;7.47;3.35;;;;;;;20.16;36.50;94495.16;5047094;28;20029;-78
2023/05/21 10:40:24;;;;;;;6.75;3.10;;;;;;;20.18;36.41;94502.91;5016813;28;20487;-78
2023/05/21 10:42:57;;;;;;;7.40;3.25;;;;;;;20.11;36.42;94502.03;5050266;28;20025;-78
2023/05/21 10:45:26;;;;;;;5.13;3.70;;;;;;;20.17;36.07;94502.09;5044677;28;20618;-78
2023/05/21 10:48:04;;;;;;;8.45;3.40;;;;;;;20.09;36.96;94503.03;5048619;28;20031;-78
2023/05/21 10:50:50;;;;;;;6.93;3.58;;;;;;;20.22;37.77;94510.22;5048643;28;20055;-78
2023/05/21 10:53:27;;;;;;;4.78;3.13;;;;;;;20.32;39.13;94504.59;5049017;28;20021;-78
2023/05/21 10:56:02;;;;;;;7.72;3.28;;;;;;;20.07;38.73;94504.25;5033098;28;20182;-78
2023/05/21 10:58:55;;;;;;;5.22;3.47;;;;;;;20.28;39.77;94503.34;5046567;28;20040;-78
2023/05/21 11:01:21;;;;;;;8.13;3.20;;;;;;;20.23;38.69;94503.13;5050088;28;20052;-78
2023/05/21 11:03:47;;;;;;;8.13;3.35;;;;;;;20.27;39.45;94501.72;5048613;28;20406;-79
2023/05/21 11:06:24;;;;;;;5.82;3.13;;;;;;;20.13;39.45;94500.03;5048917;28;20040;-78
2023/05/21 11:08:52;;;;;;;5.38;3.00;;;;;;;20.38;37.22;94495.91;5046400;28;20031;-79
2023/05/21 11:11:43;;;;;;;5.00;3.00;;;;;;;20.34;38.41;94496.47;5049964;28;20041;-80
2023/05/21 11:14:33;;;;;;;6.65;3.38;;;;;;;20.36;38.40;94484.72;5051931;28;20083;-78
2023/05/21 11:17:05;;;;;;;5.65;3.13;;;;;;;20.34;38.41;94456.91;5047602;28;20029;-81
2023/05/21 11:19:45;;;;;;;8.65;3.53;;;;;;;20.55;38.19;94467.41;5049249;28;20064;-82
2023/05/21 11:22:21;;;;;;;;;;;;;;;20.63;36.81;94475.16;5049747;28;20035;-82
2023/05/21 11:24:47;;;;;;;7.78;2.90;;;;;;;20.71;36.81;94468.88;5053066;28;19921;-84
2023/05/21 11:27:12;;;;;;;5.45;2.75;;;;;;;20.90;37.58;94476.06;5035360;28;20110;-82
2023/05/21 11:29:39;;;;;;;6.22;3.40;;;;;;;20.69;38.97;94473.53;5018663;28;20102;-80
2023/05/21 11:32:07;;;;;;;5.15;3.35;;;;;;;20.57;38.10;94461.94;5034607;28;20060;-80